This is the latest recevied weather packets stored in our database for station/object K7YVO. If no packets are shown the sender has not sent any weather packets the latest 10 day(s).
| Time | Temp. | Humidity | Pressure | Rain* | Wind** | Luminosity | Snow |
|---|---|---|---|---|---|---|---|
| 1778127320 | 13.33° C | 81% | 1023 hPa | 0 mm | - | 0 W/m² | - |
| 1778127017 | 13.33° C | 81% | 1023 hPa | 0 mm | - | 0 W/m² | - |
| 1778126714 | 13.33° C | 81% | 1022.9 hPa | 0 mm | - | 0 W/m² | - |
| 1778126106 | 13.89° C | 81% | 1022.9 hPa | 0 mm | - | 0 W/m² | - |
| 1778124895 | 13.89° C | 80% | 1022.5 hPa | 0 mm | - | 1 W/m² | - |
| 1778105774 | 18.33° C | 67% | 1022.4 hPa | 0 mm | - | 522 W/m² | - |
| 1778104864 | 17.78° C | 70% | 1022.6 hPa | 0 mm | - | 269 W/m² | - |
| 1778103348 | 17.22° C | 73% | 1022.9 hPa | 0 mm | - | 333 W/m² | - |
| 1778103045 | 17.22° C | 73% | 1023 hPa | 0 mm | - | 216 W/m² | - |
| 1778101831 | 16.67° C | 74% | 1023 hPa | 0 mm | - | 414 W/m² | - |
| 1778099405 | 16.67° C | 76% | 1023.1 hPa | 0 mm | - | 391 W/m² | - |
| 1778099103 | 16.11° C | 78% | 1023 hPa | 0 mm | - | 579 W/m² | - |
| 1778098798 | 15.56° C | 79% | 1023.4 hPa | 0 mm | - | 263 W/m² | - |
| 1778096372 | 15.56° C | 80% | 1023.1 hPa | 0 mm | - | 315 W/m² | - |
| 1778096070 | 15.56° C | 80% | 1023.2 hPa | 0 mm | - | 172 W/m² | - |
| 1778095766 | 15.56° C | 79% | 1023.1 hPa | 0 mm | - | 163 W/m² | - |
| 1778095464 | 16.11° C | 78% | 1023.1 hPa | 0 mm | - | 194 W/m² | - |
| 1778095160 | 15.56° C | 80% | 1023.2 hPa | 0 mm | - | 303 W/m² | - |
| 1778093947 | 15° C | 82% | 1023.2 hPa | 0 mm | - | 318 W/m² | - |
| 1778092430 | 14.44° C | 85% | 1023.2 hPa | 0 mm | - | 170 W/m² | - |
| 1778092128 | 14.44° C | 85% | 1023.3 hPa | 0 mm | - | 113 W/m² | - |
| 1778091825 | 13.89° C | 85% | 1023.3 hPa | 0 mm | - | 126 W/m² | - |
| 1778090917 | 13.89° C | 86% | 1023.1 hPa | 0 mm | - | 137 W/m² | - |
| 1778089098 | 13.33° C | 89% | 1023 hPa | 0 mm | - | 180 W/m² | - |
| 1778088492 | 13.33° C | 88% | 1023.1 hPa | 0 mm | - | 132 W/m² | - |
* Rain latest hour (hover to see other rain measurements)
** Current wind speed in m/s (hover to see current wind gust speed)